sensor_id;sensor_type;location;lat;lon;timestamp;P1;P2;P0
61804;PMS7003;47725;47.912;7.356;2023-08-24T00:00:37;10.70;10.70;
61804;PMS7003;47725;47.912;7.356;2023-08-24T00:04:34;10.70;10.70;
61804;PMS7003;47725;47.912;7.356;2023-08-24T00:08:34;9.70;9.70;
61804;PMS7003;47725;47.912;7.356;2023-08-24T00:12:34;9.70;9.70;
61804;PMS7003;47725;47.912;7.356;2023-08-24T00:16:34;14.52;13.55;
61804;PMS7003;47725;47.912;7.356;2023-08-24T00:20:34;14.52;13.55;
61804;PMS7003;47725;47.912;7.356;2023-08-24T00:24:34;14.52;13.55;
61804;PMS7003;47725;47.912;7.356;2023-08-24T00:28:34;15.46;12.56;
61804;PMS7003;47725;47.912;7.356;2023-08-24T00:32:35;15.46;12.56;
61804;PMS7003;47725;47.912;7.356;2023-08-24T00:36:34;15.44;14.47;
61804;PMS7003;47725;47.912;7.356;2023-08-24T00:40:34;15.44;14.47;
61804;PMS7003;47725;47.912;7.356;2023-08-24T00:44:34;15.44;14.47;
61804;PMS7003;47725;47.912;7.356;2023-08-24T00:48:34;11.56;11.56;
61804;PMS7003;47725;47.912;7.356;2023-08-24T00:52:36;11.56;11.56;
61804;PMS7003;47725;47.912;7.356;2023-08-24T00:56:34;14.42;14.42;
61804;PMS7003;47725;47.912;7.356;2023-08-24T01:00:34;14.42;14.42;
61804;PMS7003;47725;47.912;7.356;2023-08-24T01:04:34;14.42;14.42;
61804;PMS7003;47725;47.912;7.356;2023-08-24T01:08:34;12.48;12.48;
61804;PMS7003;47725;47.912;7.356;2023-08-24T01:16:34;16.29;14.37;
61804;PMS7003;47725;47.912;7.356;2023-08-24T01:20:34;16.29;14.37;
61804;PMS7003;47725;47.912;7.356;2023-08-24T01:24:36;16.29;14.37;
61804;PMS7003;47725;47.912;7.356;2023-08-24T01:28:34;10.55;10.55;
61804;PMS7003;47725;47.912;7.356;2023-08-24T01:32:35;10.55;10.55;
61804;PMS7003;47725;47.912;7.356;2023-08-24T01:36:34;13.41;11.49;
61804;PMS7003;47725;47.912;7.356;2023-08-24T01:44:35;13.41;11.49;
61804;PMS7003;47725;47.912;7.356;2023-08-24T01:48:34;10.54;10.54;
61804;PMS7003;47725;47.912;7.356;2023-08-24T01:52:34;10.54;10.54;
61804;PMS7003;47725;47.912;7.356;2023-08-24T01:56:34;12.45;12.45;
61804;PMS7003;47725;47.912;7.356;2023-08-24T02:00:34;12.45;12.45;
61804;PMS7003;47725;47.912;7.356;2023-08-24T02:04:34;12.45;12.45;
61804;PMS7003;47725;47.912;7.356;2023-08-24T02:08:34;18.13;15.27;
61804;PMS7003;47725;47.912;7.356;2023-08-24T02:12:34;18.13;15.27;
61804;PMS7003;47725;47.912;7.356;2023-08-24T02:16:35;15.25;15.25;
61804;PMS7003;47725;47.912;7.356;2023-08-24T02:20:35;15.25;15.25;
61804;PMS7003;47725;47.912;7.356;2023-08-24T02:24:34;15.25;15.25;
61804;PMS7003;47725;47.912;7.356;2023-08-24T02:28:35;15.25;14.29;
61804;PMS7003;47725;47.912;7.356;2023-08-24T02:32:34;15.25;14.29;
61804;PMS7003;47725;47.912;7.356;2023-08-24T02:36:34;11.44;11.44;
61804;PMS7003;47725;47.912;7.356;2023-08-24T02:40:34;11.44;11.44;
61804;PMS7003;47725;47.912;7.356;2023-08-24T02:44:34;11.44;11.44;
61804;PMS7003;47725;47.912;7.356;2023-08-24T02:48:34;13.36;12.40;
61804;PMS7003;47725;47.912;7.356;2023-08-24T02:52:34;13.36;12.40;
61804;PMS7003;47725;47.912;7.356;2023-08-24T02:56:34;12.41;12.41;
61804;PMS7003;47725;47.912;7.356;2023-08-24T03:00:34;12.41;12.41;
61804;PMS7003;47725;47.912;7.356;2023-08-24T03:04:34;12.41;12.41;
61804;PMS7003;47725;47.912;7.356;2023-08-24T03:08:34;14.29;13.34;
61804;PMS7003;47725;47.912;7.356;2023-08-24T03:12:34;14.29;13.34;
61804;PMS7003;47725;47.912;7.356;2023-08-24T03:16:35;13.33;13.33;
61804;PMS7003;47725;47.912;7.356;2023-08-24T03:20:34;13.33;13.33;
61804;PMS7003;47725;47.912;7.356;2023-08-24T03:24:34;13.33;13.33;
61804;PMS7003;47725;47.912;7.356;2023-08-24T03:28:34;13.33;13.33;
61804;PMS7003;47725;47.912;7.356;2023-08-24T03:32:34;13.33;13.33;
61804;PMS7003;47725;47.912;7.356;2023-08-24T03:36:34;13.33;13.33;
61804;PMS7003;47725;47.912;7.356;2023-08-24T03:40:34;13.33;13.33;
61804;PMS7003;47725;47.912;7.356;2023-08-24T03:44:34;13.33;13.33;
61804;PMS7003;47725;47.912;7.356;2023-08-24T03:48:34;15.23;15.23;
61804;PMS7003;47725;47.912;7.356;2023-08-24T03:52:34;15.23;15.23;
61804;PMS7003;47725;47.912;7.356;2023-08-24T03:56:34;16.19;14.28;
61804;PMS7003;47725;47.912;7.356;2023-08-24T04:00:34;16.19;14.28;
61804;PMS7003;47725;47.912;7.356;2023-08-24T04:04:34;16.19;14.28;
61804;PMS7003;47725;47.912;7.356;2023-08-24T04:08:34;12.38;12.38;
61804;PMS7003;47725;47.912;7.356;2023-08-24T04:12:34;12.38;12.38;
61804;PMS7003;47725;47.912;7.356;2023-08-24T04:16:34;15.21;13.31;
61804;PMS7003;47725;47.912;7.356;2023-08-24T04:20:34;15.21;13.31;
61804;PMS7003;47725;47.912;7.356;2023-08-24T04:24:34;15.21;13.31;
61804;PMS7003;47725;47.912;7.356;2023-08-24T04:28:34;11.39;11.39;
61804;PMS7003;47725;47.912;7.356;2023-08-24T04:32:34;11.39;11.39;
61804;PMS7003;47725;47.912;7.356;2023-08-24T04:36:34;13.29;11.39;
61804;PMS7003;47725;47.912;7.356;2023-08-24T04:40:54;13.29;11.39;
61804;PMS7003;47725;47.912;7.356;2023-08-24T04:44:34;13.29;11.39;
61804;PMS7003;47725;47.912;7.356;2023-08-24T04:48:34;16.17;12.36;
61804;PMS7003;47725;47.912;7.356;2023-08-24T04:52:34;16.17;12.36;
61804;PMS7003;47725;47.912;7.356;2023-08-24T04:56:34;11.43;11.43;
61804;PMS7003;47725;47.912;7.356;2023-08-24T05:00:35;11.43;11.43;
61804;PMS7003;47725;47.912;7.356;2023-08-24T05:04:34;11.43;11.43;
61804;PMS7003;47725;47.912;7.356;2023-08-24T05:08:34;10.49;9.53;
61804;PMS7003;47725;47.912;7.356;2023-08-24T05:12:34;10.49;9.53;
61804;PMS7003;47725;47.912;7.356;2023-08-24T05:16:34;12.39;11.44;
61804;PMS7003;47725;47.912;7.356;2023-08-24T05:20:34;12.39;11.44;
61804;PMS7003;47725;47.912;7.356;2023-08-24T05:24:34;12.39;11.44;
61804;PMS7003;47725;47.912;7.356;2023-08-24T05:28:34;13.34;13.34;
61804;PMS7003;47725;47.912;7.356;2023-08-24T05:32:34;13.34;13.34;
61804;PMS7003;47725;47.912;7.356;2023-08-24T05:36:34;18.11;15.25;
61804;PMS7003;47725;47.912;7.356;2023-08-24T05:40:34;18.11;15.25;
61804;PMS7003;47725;47.912;7.356;2023-08-24T05:44:34;18.11;15.25;
61804;PMS7003;47725;47.912;7.356;2023-08-24T05:48:34;14.29;13.34;
61804;PMS7003;47725;47.912;7.356;2023-08-24T05:52:34;14.29;13.34;
61804;PMS7003;47725;47.912;7.356;2023-08-24T05:56:34;13.33;13.33;
61804;PMS7003;47725;47.912;7.356;2023-08-24T06:00:34;13.33;13.33;
61804;PMS7003;47725;47.912;7.356;2023-08-24T06:04:34;13.33;13.33;
61804;PMS7003;47725;47.912;7.356;2023-08-24T06:08:34;13.34;13.34;
61804;PMS7003;47725;47.912;7.356;2023-08-24T06:12:34;13.34;13.34;
61804;PMS7003;47725;47.912;7.356;2023-08-24T06:16:34;10.48;10.48;
61804;PMS7003;47725;47.912;7.356;2023-08-24T06:20:34;10.48;10.48;
61804;PMS7003;47725;47.912;7.356;2023-08-24T06:24:34;10.48;10.48;
61804;PMS7003;47725;47.912;7.356;2023-08-24T06:28:34;11.45;11.45;
61804;PMS7003;47725;47.912;7.356;2023-08-24T06:32:34;11.45;11.45;
61804;PMS7003;47725;47.912;7.356;2023-08-24T06:36:34;13.35;13.35;
61804;PMS7003;47725;47.912;7.356;2023-08-24T06:40:34;13.35;13.35;
61804;PMS7003;47725;47.912;7.356;2023-08-24T06:44:34;13.35;13.35;
61804;PMS7003;47725;47.912;7.356;2023-08-24T06:48:34;9.53;9.53;
61804;PMS7003;47725;47.912;7.356;2023-08-24T06:52:34;9.53;9.53;
61804;PMS7003;47725;47.912;7.356;2023-08-24T06:56:34;12.41;10.50;
61804;PMS7003;47725;47.912;7.356;2023-08-24T07:00:34;12.41;10.50;
61804;PMS7003;47725;47.912;7.356;2023-08-24T07:04:34;12.41;10.50;
61804;PMS7003;47725;47.912;7.356;2023-08-24T07:08:35;15.29;13.38;
61804;PMS7003;47725;47.912;7.356;2023-08-24T07:12:34;15.29;13.38;
61804;PMS7003;47725;47.912;7.356;2023-08-24T07:16:34;14.38;14.38;
61804;PMS7003;47725;47.912;7.356;2023-08-24T07:20:34;14.38;14.38;
61804;PMS7003;47725;47.912;7.356;2023-08-24T07:24:34;14.38;14.38;
61804;PMS7003;47725;47.912;7.356;2023-08-24T07:28:34;13.48;12.51;
61804;PMS7003;47725;47.912;7.356;2023-08-24T07:32:34;13.48;12.51;
61804;PMS7003;47725;47.912;7.356;2023-08-24T07:36:34;16.42;14.49;
61804;PMS7003;47725;47.912;7.356;2023-08-24T07:40:34;16.42;14.49;
61804;PMS7003;47725;47.912;7.356;2023-08-24T07:44:34;16.42;14.49;
61804;PMS7003;47725;47.912;7.356;2023-08-24T07:48:34;15.48;14.51;
61804;PMS7003;47725;47.912;7.356;2023-08-24T07:52:34;15.48;14.51;
61804;PMS7003;47725;47.912;7.356;2023-08-24T07:56:34;16.50;16.50;
61804;PMS7003;47725;47.912;7.356;2023-08-24T08:00:34;16.50;16.50;
61804;PMS7003;47725;47.912;7.356;2023-08-24T08:04:34;16.50;16.50;
61804;PMS7003;47725;47.912;7.356;2023-08-24T08:08:34;12.66;12.66;
61804;PMS7003;47725;47.912;7.356;2023-08-24T08:12:34;12.66;12.66;
61804;PMS7003;47725;47.912;7.356;2023-08-24T08:16:34;16.62;15.65;
61804;PMS7003;47725;47.912;7.356;2023-08-24T08:20:34;16.62;15.65;
61804;PMS7003;47725;47.912;7.356;2023-08-24T08:24:34;16.62;15.65;
61804;PMS7003;47725;47.912;7.356;2023-08-24T08:28:34;14.71;14.71;
61804;PMS7003;47725;47.912;7.356;2023-08-24T10:49:59;12.88;11.88;
61804;PMS7003;47725;47.912;7.356;2023-08-24T10:53:58;12.88;11.88;
61804;PMS7003;47725;47.912;7.356;2023-08-24T10:57:56;11.94;9.95;
61804;PMS7003;47725;47.912;7.356;2023-08-24T11:01:55;11.94;9.95;
61804;PMS7003;47725;47.912;7.356;2023-08-24T11:05:55;13.95;12.96;
61804;PMS7003;47725;47.912;7.356;2023-08-24T11:09:55;13.95;12.96;
61804;PMS7003;47725;47.912;7.356;2023-08-24T11:21:56;11.97;10.97;
61804;PMS7003;47725;47.912;7.356;2023-08-24T11:25:57;13.97;13.97;
61804;PMS7003;47725;47.912;7.356;2023-08-24T11:29:59;13.97;13.97;
61804;PMS7003;47725;47.912;7.356;2023-08-24T11:33:56;13.97;13.97;
61804;PMS7003;47725;47.912;7.356;2023-08-24T11:37:56;13.97;13.97;
61804;PMS7003;47725;47.912;7.356;2023-08-24T11:42:02;13.97;13.97;
61804;PMS7003;47725;47.912;7.356;2023-08-24T11:45:56;11.98;11.98;
61804;PMS7003;47725;47.912;7.356;2023-08-24T11:49:56;11.98;11.98;
61804;PMS7003;47725;47.912;7.356;2023-08-24T11:53:56;11.98;11.98;
61804;PMS7003;47725;47.912;7.356;2023-08-24T11:57:56;10.98;10.98;
61804;PMS7003;47725;47.912;7.356;2023-08-24T12:01:56;10.98;10.98;
61804;PMS7003;47725;47.912;7.356;2023-08-24T12:06:02;8.99;8.99;
61804;PMS7003;47725;47.912;7.356;2023-08-24T12:09:56;8.99;8.99;
61804;PMS7003;47725;47.912;7.356;2023-08-24T12:13:56;8.99;8.99;
61804;PMS7003;47725;47.912;7.356;2023-08-24T12:17:56;11.98;10.99;
61804;PMS7003;47725;47.912;7.356;2023-08-24T12:21:56;11.98;10.99;
61804;PMS7003;47725;47.912;7.356;2023-08-24T12:25:56;12.99;11.99;
61804;PMS7003;47725;47.912;7.356;2023-08-24T12:29:59;12.99;11.99;
61804;PMS7003;47725;47.912;7.356;2023-08-24T12:33:59;12.99;11.99;
61804;PMS7003;47725;47.912;7.356;2023-08-24T12:37:56;8.99;8.99;
61804;PMS7003;47725;47.912;7.356;2023-08-24T12:41:56;8.99;8.99;
61804;PMS7003;47725;47.912;7.356;2023-08-24T12:45:56;8.99;7.99;
61804;PMS7003;47725;47.912;7.356;2023-08-24T12:49:56;8.99;7.99;
61804;PMS7003;47725;47.912;7.356;2023-08-24T12:53:56;8.99;7.99;
61804;PMS7003;47725;47.912;7.356;2023-08-24T12:57:56;9.99;9.99;
61804;PMS7003;47725;47.912;7.356;2023-08-24T13:01:56;9.99;9.99;
61804;PMS7003;47725;47.912;7.356;2023-08-24T13:05:56;10.99;8.99;
61804;PMS7003;47725;47.912;7.356;2023-08-24T13:09:56;10.99;8.99;
61804;PMS7003;47725;47.912;7.356;2023-08-24T13:13:56;10.99;8.99;
61804;PMS7003;47725;47.912;7.356;2023-08-24T13:17:56;9.99;8.99;
61804;PMS7003;47725;47.912;7.356;2023-08-24T13:21:56;9.99;8.99;
61804;PMS7003;47725;47.912;7.356;2023-08-24T13:25:59;9.99;8.99;
61804;PMS7003;47725;47.912;7.356;2023-08-24T13:29:59;9.99;8.99;
61804;PMS7003;47725;47.912;7.356;2023-08-24T13:33:56;9.99;8.99;
61804;PMS7003;47725;47.912;7.356;2023-08-24T13:37:56;7.99;7.99;
61804;PMS7003;47725;47.912;7.356;2023-08-24T13:41:56;7.99;7.99;
61804;PMS7003;47725;47.912;7.356;2023-08-24T13:45:56;8.99;8.99;
61804;PMS7003;47725;47.912;7.356;2023-08-24T13:49:56;8.99;8.99;
61804;PMS7003;47725;47.912;7.356;2023-08-24T13:53:56;8.99;8.99;
61804;PMS7003;47725;47.912;7.356;2023-08-24T13:57:56;7.00;7.00;
61804;PMS7003;47725;47.912;7.356;2023-08-24T14:01:56;7.00;7.00;
61804;PMS7003;47725;47.912;7.356;2023-08-24T14:05:56;8.99;8.99;
61804;PMS7003;47725;47.912;7.356;2023-08-24T14:09:56;8.99;8.99;
61804;PMS7003;47725;47.912;7.356;2023-08-24T14:13:56;8.99;8.99;
61804;PMS7003;47725;47.912;7.356;2023-08-24T14:17:56;7.99;7.99;
61804;PMS7003;47725;47.912;7.356;2023-08-24T14:21:56;7.99;7.99;
61804;PMS7003;47725;47.912;7.356;2023-08-24T14:25:56;8.99;7.99;
61804;PMS7003;47725;47.912;7.356;2023-08-24T14:29:55;8.99;7.99;
61804;PMS7003;47725;47.912;7.356;2023-08-24T14:33:56;8.99;7.99;
61804;PMS7003;47725;47.912;7.356;2023-08-24T14:37:56;5.00;5.00;
61804;PMS7003;47725;47.912;7.356;2023-08-24T14:41:55;5.00;5.00;
61804;PMS7003;47725;47.912;7.356;2023-08-24T14:45:55;5.00;5.00;
61804;PMS7003;47725;47.912;7.356;2023-08-24T14:49:55;5.00;5.00;
61804;PMS7003;47725;47.912;7.356;2023-08-24T14:53:55;5.00;5.00;
61804;PMS7003;47725;47.912;7.356;2023-08-24T14:57:55;7.00;5.00;
61804;PMS7003;47725;47.912;7.356;2023-08-24T15:01:55;7.00;5.00;
61804;PMS7003;47725;47.912;7.356;2023-08-24T15:06:02;7.00;6.00;
61804;PMS7003;47725;47.912;7.356;2023-08-24T15:09:55;7.00;6.00;
61804;PMS7003;47725;47.912;7.356;2023-08-24T15:13:55;7.00;6.00;
61804;PMS7003;47725;47.912;7.356;2023-08-24T15:17:56;5.00;5.00;
61804;PMS7003;47725;47.912;7.356;2023-08-24T15:21:55;5.00;5.00;
61804;PMS7003;47725;47.912;7.356;2023-08-24T15:25:59;7.99;7.99;
61804;PMS7003;47725;47.912;7.356;2023-08-24T15:29:55;7.99;7.99;
61804;PMS7003;47725;47.912;7.356;2023-08-24T15:33:55;7.99;7.99;
61804;PMS7003;47725;47.912;7.356;2023-08-24T15:37:56;12.99;11.99;
61804;PMS7003;47725;47.912;7.356;2023-08-24T15:41:55;12.99;11.99;
61804;PMS7003;47725;47.912;7.356;2023-08-24T15:45:55;9.99;9.99;
61804;PMS7003;47725;47.912;7.356;2023-08-24T15:49:55;9.99;9.99;
61804;PMS7003;47725;47.912;7.356;2023-08-24T15:53:55;9.99;9.99;
61804;PMS7003;47725;47.912;7.356;2023-08-24T15:57:57;10.98;9.99;
61804;PMS7003;47725;47.912;7.356;2023-08-24T16:01:55;10.98;9.99;
61804;PMS7003;47725;47.912;7.356;2023-08-24T16:05:56;10.98;8.99;
61804;PMS7003;47725;47.912;7.356;2023-08-24T16:09:56;10.98;8.99;
61804;PMS7003;47725;47.912;7.356;2023-08-24T16:13:55;10.98;8.99;
61804;PMS7003;47725;47.912;7.356;2023-08-24T16:17:55;10.98;9.98;
61804;PMS7003;47725;47.912;7.356;2023-08-24T16:21:55;10.98;9.98;
61804;PMS7003;47725;47.912;7.356;2023-08-24T16:25:56;9.98;9.98;
61804;PMS7003;47725;47.912;7.356;2023-08-24T16:29:56;9.98;9.98;
61804;PMS7003;47725;47.912;7.356;2023-08-24T16:33:55;9.98;9.98;
61804;PMS7003;47725;47.912;7.356;2023-08-24T16:37:55;9.98;9.98;
61804;PMS7003;47725;47.912;7.356;2023-08-24T16:41:55;9.98;9.98;
61804;PMS7003;47725;47.912;7.356;2023-08-24T16:45:55;9.98;9.98;
61804;PMS7003;47725;47.912;7.356;2023-08-24T16:49:55;9.98;9.98;
61804;PMS7003;47725;47.912;7.356;2023-08-24T16:53:55;9.98;9.98;
61804;PMS7003;47725;47.912;7.356;2023-08-24T16:57:56;11.97;9.98;
61804;PMS7003;47725;47.912;7.356;2023-08-24T17:01:55;11.97;9.98;
61804;PMS7003;47725;47.912;7.356;2023-08-24T17:05:55;11.97;11.97;
61804;PMS7003;47725;47.912;7.356;2023-08-24T17:09:55;11.97;11.97;
61804;PMS7003;47725;47.912;7.356;2023-08-24T17:13:55;11.97;11.97;
61804;PMS7003;47725;47.912;7.356;2023-08-24T17:17:59;11.96;11.96;
61804;PMS7003;47725;47.912;7.356;2023-08-24T17:21:55;11.96;11.96;
61804;PMS7003;47725;47.912;7.356;2023-08-24T17:25:55;10.96;10.96;
61804;PMS7003;47725;47.912;7.356;2023-08-24T17:29:55;10.96;10.96;
61804;PMS7003;47725;47.912;7.356;2023-08-24T17:33:56;10.96;10.96;
61804;PMS7003;47725;47.912;7.356;2023-08-24T17:37:56;14.90;14.90;
61804;PMS7003;47725;47.912;7.356;2023-08-24T17:41:55;14.90;14.90;
61804;PMS7003;47725;47.912;7.356;2023-08-24T17:45:55;20.69;16.75;
61804;PMS7003;47725;47.912;7.356;2023-08-24T17:49:55;20.69;16.75;
61804;PMS7003;47725;47.912;7.356;2023-08-24T17:53:55;20.69;16.75;
61804;PMS7003;47725;47.912;7.356;2023-08-24T17:57:55;14.66;14.66;
61804;PMS7003;47725;47.912;7.356;2023-08-24T18:01:55;14.66;14.66;
61804;PMS7003;47725;47.912;7.356;2023-08-24T18:05:55;13.51;12.55;
61804;PMS7003;47725;47.912;7.356;2023-08-24T18:09:56;13.51;12.55;
61804;PMS7003;47725;47.912;7.356;2023-08-24T18:13:55;13.51;12.55;
61804;PMS7003;47725;47.912;7.356;2023-08-24T18:17:55;13.53;12.57;
61804;PMS7003;47725;47.912;7.356;2023-08-24T18:21:55;13.53;12.57;
61804;PMS7003;47725;47.912;7.356;2023-08-24T18:25:55;10.60;10.60;
61804;PMS7003;47725;47.912;7.356;2023-08-24T18:29:55;10.60;10.60;
61804;PMS7003;47725;47.912;7.356;2023-08-24T18:33:55;10.60;10.60;
61804;PMS7003;47725;47.912;7.356;2023-08-24T18:37:55;4.78;3.82;
61804;PMS7003;47725;47.912;7.356;2023-08-24T18:41:55;4.78;3.82;
61804;PMS7003;47725;47.912;7.356;2023-08-24T18:45:56;3.83;3.83;
61804;PMS7003;47725;47.912;7.356;2023-08-24T18:49:58;3.83;3.83;
61804;PMS7003;47725;47.912;7.356;2023-08-24T18:53:55;3.83;3.83;
61804;PMS7003;47725;47.912;7.356;2023-08-24T18:57:55;1.91;0.96;
61804;PMS7003;47725;47.912;7.356;2023-08-24T19:01:55;1.91;0.96;
61804;PMS7003;47725;47.912;7.356;2023-08-24T19:05:55;1.91;0.96;
61804;PMS7003;47725;47.912;7.356;2023-08-24T19:09:55;1.91;0.96;
61804;PMS7003;47725;47.912;7.356;2023-08-24T19:13:55;1.91;0.96;
61804;PMS7003;47725;47.912;7.356;2023-08-24T19:17:55;1.91;0.00;
61804;PMS7003;47725;47.912;7.356;2023-08-24T19:21:55;1.91;0.00;
61804;PMS7003;47725;47.912;7.356;2023-08-24T19:25:55;0.00;0.00;
61804;PMS7003;47725;47.912;7.356;2023-08-24T19:29:55;0.00;0.00;
61804;PMS7003;47725;47.912;7.356;2023-08-24T19:33:55;0.00;0.00;
61804;PMS7003;47725;47.912;7.356;2023-08-24T19:37:55;0.00;0.00;
61804;PMS7003;47725;47.912;7.356;2023-08-24T19:41:55;0.00;0.00;
61804;PMS7003;47725;47.912;7.356;2023-08-24T19:45:55;0.95;0.00;
61804;PMS7003;47725;47.912;7.356;2023-08-24T19:49:55;0.95;0.00;
61804;PMS7003;47725;47.912;7.356;2023-08-24T19:53:56;0.95;0.00;
61804;PMS7003;47725;47.912;7.356;2023-08-24T19:57:55;0.94;0.94;
61804;PMS7003;47725;47.912;7.356;2023-08-24T20:01:55;0.94;0.94;
61804;PMS7003;47725;47.912;7.356;2023-08-24T20:05:55;1.88;1.88;
61804;PMS7003;47725;47.912;7.356;2023-08-24T20:09:55;1.88;1.88;
61804;PMS7003;47725;47.912;7.356;2023-08-24T20:13:55;1.88;1.88;
61804;PMS7003;47725;47.912;7.356;2023-08-24T20:17:55;1.87;1.87;
61804;PMS7003;47725;47.912;7.356;2023-08-24T20:21:55;1.87;1.87;
61804;PMS7003;47725;47.912;7.356;2023-08-24T20:25:55;2.76;0.92;
61804;PMS7003;47725;47.912;7.356;2023-08-24T20:29:55;2.76;0.92;
61804;PMS7003;47725;47.912;7.356;2023-08-24T20:33:55;2.76;0.92;
61804;PMS7003;47725;47.912;7.356;2023-08-24T20:37:55;0.92;0.92;
61804;PMS7003;47725;47.912;7.356;2023-08-24T20:42:10;0.92;0.92;
61804;PMS7003;47725;47.912;7.356;2023-08-24T20:45:55;1.85;1.85;
61804;PMS7003;47725;47.912;7.356;2023-08-24T20:49:55;1.85;1.85;
61804;PMS7003;47725;47.912;7.356;2023-08-24T20:53:55;1.85;1.85;
61804;PMS7003;47725;47.912;7.356;2023-08-24T20:57:55;6.43;3.68;
61804;PMS7003;47725;47.912;7.356;2023-08-24T21:01:55;6.43;3.68;
61804;PMS7003;47725;47.912;7.356;2023-08-24T21:05:58;4.54;4.54;
61804;PMS7003;47725;47.912;7.356;2023-08-24T21:09:55;4.54;4.54;
61804;PMS7003;47725;47.912;7.356;2023-08-24T21:13:55;4.54;4.54;
61804;PMS7003;47725;47.912;7.356;2023-08-24T21:17:55;6.28;6.28;
61804;PMS7003;47725;47.912;7.356;2023-08-24T21:21:55;6.28;6.28;
61804;PMS7003;47725;47.912;7.356;2023-08-24T21:25:55;5.28;3.52;
61804;PMS7003;47725;47.912;7.356;2023-08-24T21:29:55;5.28;3.52;
61804;PMS7003;47725;47.912;7.356;2023-08-24T21:33:55;5.28;3.52;
61804;PMS7003;47725;47.912;7.356;2023-08-24T21:37:55;5.18;5.18;
61804;PMS7003;47725;47.912;7.356;2023-08-24T21:41:55;5.18;5.18;
61804;PMS7003;47725;47.912;7.356;2023-08-24T21:45:55;3.47;3.47;
61804;PMS7003;47725;47.912;7.356;2023-08-24T21:49:55;3.47;3.47;
61804;PMS7003;47725;47.912;7.356;2023-08-24T21:53:55;3.47;3.47;
61804;PMS7003;47725;47.912;7.356;2023-08-24T21:57:55;4.37;4.37;
61804;PMS7003;47725;47.912;7.356;2023-08-24T22:01:55;4.37;4.37;
61804;PMS7003;47725;47.912;7.356;2023-08-24T22:05:55;3.51;3.51;
61804;PMS7003;47725;47.912;7.356;2023-08-24T22:09:55;3.51;3.51;
61804;PMS7003;47725;47.912;7.356;2023-08-24T22:13:55;3.51;3.51;
61804;PMS7003;47725;47.912;7.356;2023-08-24T22:17:55;4.40;2.64;
61804;PMS7003;47725;47.912;7.356;2023-08-24T22:21:55;4.40;2.64;
61804;PMS7003;47725;47.912;7.356;2023-08-24T22:25:55;3.55;3.55;
61804;PMS7003;47725;47.912;7.356;2023-08-24T22:29:55;3.55;3.55;
61804;PMS7003;47725;47.912;7.356;2023-08-24T22:33:55;3.55;3.55;
61804;PMS7003;47725;47.912;7.356;2023-08-24T22:37:55;3.54;3.54;
61804;PMS7003;47725;47.912;7.356;2023-08-24T22:41:55;3.54;3.54;
61804;PMS7003;47725;47.912;7.356;2023-08-24T22:45:55;4.47;3.57;
61804;PMS7003;47725;47.912;7.356;2023-08-24T22:49:55;4.47;3.57;
61804;PMS7003;47725;47.912;7.356;2023-08-24T22:53:55;4.47;3.57;
61804;PMS7003;47725;47.912;7.356;2023-08-24T22:57:55;4.51;2.71;
61804;PMS7003;47725;47.912;7.356;2023-08-24T23:01:55;4.51;2.71;
61804;PMS7003;47725;47.912;7.356;2023-08-24T23:05:55;4.53;2.72;
61804;PMS7003;47725;47.912;7.356;2023-08-24T23:09:55;4.53;2.72;
61804;PMS7003;47725;47.912;7.356;2023-08-24T23:13:55;4.53;2.72;
61804;PMS7003;47725;47.912;7.356;2023-08-24T23:17:55;3.65;3.65;
61804;PMS7003;47725;47.912;7.356;2023-08-24T23:21:55;3.65;3.65;
61804;PMS7003;47725;47.912;7.356;2023-08-24T23:25:55;3.63;3.63;
61804;PMS7003;47725;47.912;7.356;2023-08-24T23:29:55;3.63;3.63;
61804;PMS7003;47725;47.912;7.356;2023-08-24T23:33:55;3.63;3.63;
61804;PMS7003;47725;47.912;7.356;2023-08-24T23:37:55;4.55;2.73;
61804;PMS7003;47725;47.912;7.356;2023-08-24T23:41:55;4.55;2.73;
61804;PMS7003;47725;47.912;7.356;2023-08-24T23:45:55;3.66;3.66;
61804;PMS7003;47725;47.912;7.356;2023-08-24T23:49:55;3.66;3.66;
61804;PMS7003;47725;47.912;7.356;2023-08-24T23:53:55;3.66;3.66;
61804;PMS7003;47725;47.912;7.356;2023-08-24T23:57:55;4.57;2.74;
